createdAt,value
2023-04-15T00:00:20.042Z,99821.78
2023-04-15T00:01:23.313Z,99818.95
2023-04-15T00:02:26.281Z,99826.13
2023-04-15T00:03:29.227Z,99828.05
2023-04-15T00:04:33.051Z,99829.33
2023-04-15T00:05:36.255Z,99826.62
2023-04-15T00:06:39.283Z,99835.59
2023-04-15T00:07:41.655Z,99832.78
2023-04-15T00:08:46.020Z,99830.00
2023-04-15T00:09:48.756Z,99832.00
2023-04-15T00:10:51.227Z,99830.56
2023-04-15T00:11:54.124Z,99833.84
2023-04-15T00:12:56.993Z,99836.37
2023-04-15T00:14:00.282Z,99826.58
2023-04-15T00:15:03.543Z,99832.08
2023-04-15T00:16:07.898Z,99828.26
2023-04-15T00:17:10.541Z,99836.19
2023-04-15T00:18:13.174Z,99820.64
2023-04-15T00:19:15.328Z,99830.27
2023-04-15T00:20:17.659Z,99830.27
2023-04-15T00:21:21.156Z,99826.78
2023-04-15T00:22:23.899Z,99840.23
2023-04-15T00:23:26.754Z,99842.55
2023-04-15T00:24:30.738Z,99827.61
2023-04-15T00:25:33.430Z,99830.81
2023-04-15T00:26:36.093Z,99827.33
2023-04-15T00:27:38.970Z,99834.84
2023-04-15T00:28:41.841Z,99835.73
2023-04-15T00:29:44.411Z,99834.39
2023-04-15T00:30:46.877Z,99831.91
2023-04-15T00:31:49.157Z,99825.67
2023-04-15T00:32:52.130Z,99816.80
2023-04-15T00:33:56.277Z,99820.20
2023-04-15T00:34:58.304Z,99818.20
2023-04-15T00:36:00.331Z,99829.34
2023-04-15T00:37:05.205Z,99819.86
2023-04-15T00:38:08.429Z,99821.55
2023-04-15T00:39:10.834Z,99826.41
2023-04-15T00:40:16.118Z,99816.92
2023-04-15T00:41:19.305Z,99824.89
2023-04-15T00:42:22.311Z,99817.06
2023-04-15T00:43:26.381Z,99822.84
2023-04-15T00:44:29.198Z,99828.16
2023-04-15T00:45:32.906Z,99825.98
2023-04-15T00:46:37.215Z,99828.36
2023-04-15T00:47:42.636Z,99825.44
2023-04-15T00:48:46.384Z,99823.26
2023-04-15T00:49:48.769Z,99814.61
2023-04-15T00:50:52.478Z,99816.74
2023-04-15T00:51:55.096Z,99819.86
2023-04-15T00:52:57.349Z,99816.26
2023-04-15T00:54:00.182Z,99821.28
2023-04-15T00:55:05.040Z,99825.48
2023-04-15T00:56:08.122Z,99821.56
2023-04-15T00:57:10.928Z,99821.30
2023-04-15T00:58:13.931Z,99825.87
2023-04-15T00:59:18.714Z,99827.00
2023-04-15T01:00:22.637Z,99827.39
2023-04-15T01:01:26.543Z,99828.14
2023-04-15T01:02:29.261Z,99831.65
2023-04-15T01:03:32.218Z,99822.89
2023-04-15T01:04:38.321Z,99827.69
2023-04-15T01:05:41.151Z,99820.34
2023-04-15T01:06:43.920Z,99828.72
2023-04-15T01:07:47.565Z,99824.92
2023-04-15T01:08:50.723Z,99827.51
2023-04-15T01:09:53.200Z,99822.30
2023-04-15T01:10:57.946Z,99832.00
2023-04-15T01:12:00.470Z,99826.73
2023-04-15T01:13:03.594Z,99827.41
2023-04-15T01:14:07.131Z,99822.12
2023-04-15T01:15:10.812Z,99822.59
2023-04-15T01:16:14.359Z,99820.46
2023-04-15T01:17:18.563Z,99826.73
2023-04-15T01:18:21.121Z,99821.64
2023-04-15T01:19:23.475Z,99814.77
2023-04-15T01:20:26.996Z,99819.94
2023-04-15T01:21:30.466Z,99821.00
2023-04-15T01:22:33.946Z,99821.00
2023-04-15T01:23:38.154Z,99822.47
2023-04-15T01:24:43.858Z,99825.81
2023-04-15T01:25:46.947Z,99827.22
2023-04-15T01:26:49.922Z,99815.97
2023-04-15T01:27:52.449Z,99816.56
2023-04-15T01:28:55.749Z,99829.06
2023-04-15T01:29:59.435Z,99829.73
2023-04-15T01:31:12.892Z,99833.00
2023-04-15T01:32:15.987Z,99836.57
2023-04-15T01:33:19.566Z,99834.93
2023-04-15T01:34:22.203Z,99833.20
2023-04-15T01:35:24.756Z,99834.59
2023-04-15T01:36:28.199Z,99839.51
2023-04-15T01:37:32.172Z,99834.39
2023-04-15T01:38:35.760Z,99844.94
2023-04-15T01:39:38.906Z,99843.25
2023-04-15T01:40:41.300Z,99846.03
2023-04-15T01:41:44.547Z,99844.83
2023-04-15T01:42:46.896Z,99839.17
2023-04-15T01:43:52.076Z,99844.16
2023-04-15T01:44:54.497Z,99839.66
2023-04-15T01:45:56.634Z,99837.62
2023-04-15T01:46:59.189Z,99837.45
2023-04-15T01:48:02.337Z,99838.12
2023-04-15T01:49:04.662Z,99838.06
2023-04-15T01:50:09.127Z,99849.17
2023-04-15T01:51:11.581Z,99840.85
2023-04-15T01:52:16.269Z,99842.08
2023-04-15T01:53:19.232Z,99837.84
2023-04-15T01:54:22.679Z,99834.09
2023-04-15T01:55:26.674Z,99832.89
2023-04-15T01:56:29.204Z,99834.33
2023-04-15T01:57:32.040Z,99823.05
2023-04-15T01:58:34.365Z,99828.45
2023-04-15T01:59:36.682Z,99835.28
2023-04-15T02:00:39.945Z,99829.00
2023-04-15T02:01:42.258Z,99833.20
2023-04-15T02:02:44.719Z,99832.80
2023-04-15T02:03:47.241Z,99842.00
2023-04-15T02:04:52.998Z,99834.39
2023-04-15T02:05:56.120Z,99840.30
2023-04-15T02:06:58.629Z,99835.20
2023-04-15T02:08:01.177Z,99829.77
2023-04-15T02:09:03.969Z,99832.86
2023-04-15T02:10:07.417Z,99842.38
2023-04-15T02:11:11.128Z,99837.28
2023-04-15T02:12:13.476Z,99835.25
2023-04-15T02:13:16.761Z,99841.94
2023-04-15T02:14:19.636Z,99838.70
2023-04-15T02:15:22.620Z,99841.30
2023-04-15T02:16:25.522Z,99840.55
2023-04-15T02:17:28.423Z,99840.37
2023-04-15T02:18:31.035Z,99846.69
2023-04-15T02:19:34.462Z,99847.17
2023-04-15T02:20:39.096Z,99843.96
2023-04-15T02:21:41.806Z,99861.27
2023-04-15T02:22:44.290Z,99846.50
2023-04-15T02:23:47.827Z,99854.50
2023-04-15T02:24:50.922Z,99857.67
2023-04-15T02:25:54.355Z,99852.50
2023-04-15T02:26:58.618Z,99859.38
2023-04-15T02:28:01.435Z,99860.00
2023-04-15T02:29:03.834Z,99849.41
2023-04-15T02:30:07.407Z,99852.43
2023-04-15T02:31:10.657Z,99862.83
2023-04-15T02:32:13.835Z,99866.25
2023-04-15T02:33:16.139Z,99859.36
2023-04-15T02:34:22.062Z,99859.56
2023-04-15T02:35:25.373Z,99863.09
2023-04-15T02:36:29.289Z,99861.04
2023-04-15T02:37:35.007Z,99871.97
2023-04-15T02:38:39.278Z,99874.78
2023-04-15T02:39:43.367Z,99868.50
2023-04-15T02:40:46.010Z,99866.63
2023-04-15T02:41:52.699Z,99865.63
2023-04-15T02:42:58.144Z,99868.67
2023-04-15T02:44:00.825Z,99864.84
2023-04-15T02:45:05.361Z,99863.22
2023-04-15T02:46:10.546Z,99869.25
2023-04-15T02:47:14.726Z,99869.58
2023-04-15T02:48:19.727Z,99865.98
2023-04-15T02:49:22.429Z,99865.80
2023-04-15T02:50:25.577Z,99874.14
2023-04-15T02:51:31.639Z,99883.12
2023-04-15T02:52:34.444Z,99887.31
2023-04-15T02:53:36.914Z,99886.25
2023-04-15T02:54:39.455Z,99890.45
2023-04-15T02:55:42.786Z,99883.73
2023-04-15T02:56:45.445Z,99888.50
2023-04-15T02:57:47.789Z,99891.02
2023-04-15T02:58:50.862Z,99892.56
2023-04-15T02:59:53.816Z,99895.70
2023-04-15T03:00:56.334Z,99895.34
2023-04-15T03:02:00.470Z,99896.86
2023-04-15T03:03:04.643Z,99897.09
2023-04-15T03:04:08.334Z,99890.25
2023-04-15T03:05:15.773Z,99899.84
2023-04-15T03:06:20.295Z,99900.59
2023-04-15T03:07:24.611Z,99897.70
2023-04-15T03:08:29.030Z,99896.60
2023-04-15T03:09:32.458Z,99897.67
2023-04-15T03:10:37.569Z,99898.01
2023-04-15T03:11:41.444Z,99897.55
2023-04-15T03:12:45.064Z,99905.55
2023-04-15T03:13:49.454Z,99912.47
2023-04-15T03:14:56.489Z,99900.88
2023-04-15T03:16:00.718Z,99899.52
2023-04-15T03:17:03.078Z,99902.41
2023-04-15T03:18:06.840Z,99899.00
2023-04-15T03:19:11.496Z,99901.31
2023-04-15T03:20:15.226Z,99892.91
2023-04-15T03:21:19.347Z,99903.13
2023-04-15T03:22:22.836Z,99905.42
2023-04-15T03:23:25.732Z,99906.41
2023-04-15T03:24:29.768Z,99911.90
2023-04-15T03:25:32.584Z,99907.55
2023-04-15T03:26:35.706Z,99906.41
2023-04-15T03:27:41.420Z,99906.00
2023-04-15T03:28:44.034Z,99907.55
2023-04-15T03:29:48.122Z,99906.66
2023-04-15T03:30:52.048Z,99920.55
2023-04-15T03:31:54.320Z,99912.55
2023-04-15T03:32:56.618Z,99914.47
2023-04-15T03:33:58.877Z,99915.06
2023-04-15T03:35:02.282Z,99915.06
2023-04-15T03:36:05.424Z,99918.88
2023-04-15T03:37:08.168Z,99915.47
2023-04-15T03:38:10.638Z,99907.78
2023-04-15T03:39:13.183Z,99907.78
2023-04-15T03:40:16.385Z,99920.30
2023-04-15T03:41:18.550Z,99916.66
2023-04-15T03:42:20.922Z,99918.18
2023-04-15T03:43:23.745Z,99925.05
2023-04-15T03:44:28.950Z,99919.30
2023-04-15T03:45:31.349Z,99919.47
2023-04-15T03:46:33.723Z,99915.13
2023-04-15T03:47:36.098Z,99907.25
2023-04-15T03:48:38.436Z,99912.34
2023-04-15T03:49:40.896Z,99918.89
2023-04-15T03:50:43.613Z,99915.88
2023-04-15T03:51:46.053Z,99917.51
2023-04-15T03:52:49.182Z,99910.30
2023-04-15T03:53:52.393Z,99909.13
2023-04-15T03:54:56.549Z,99901.89
2023-04-15T03:55:59.437Z,99906.94
2023-04-15T03:57:01.837Z,99908.66
2023-04-15T03:58:04.112Z,99892.99
2023-04-15T03:59:06.558Z,99895.42
2023-04-15T04:00:10.164Z,99901.66
2023-04-15T04:01:15.973Z,99899.19
2023-04-15T04:02:18.390Z,99897.83
2023-04-15T04:03:21.729Z,99896.81
2023-04-15T04:04:24.760Z,99906.33
2023-04-15T04:05:27.174Z,99903.34
2023-04-15T04:06:29.901Z,99900.78
2023-04-15T04:07:31.970Z,99903.29
2023-04-15T04:08:34.290Z,99913.41
2023-04-15T04:09:38.403Z,99916.35
2023-04-15T04:10:41.011Z,99907.06
2023-04-15T04:11:45.011Z,99904.53
2023-04-15T04:12:47.290Z,99911.23
2023-04-15T04:13:49.931Z,99910.06
2023-04-15T04:14:52.049Z,99909.86
2023-04-15T04:15:54.519Z,99908.99
2023-04-15T04:16:57.106Z,99912.13
2023-04-15T04:18:01.157Z,99920.30
2023-04-15T04:19:04.792Z,99919.59
2023-04-15T04:20:09.140Z,99913.55
2023-04-15T04:21:11.872Z,99913.59
2023-04-15T04:22:14.226Z,99910.30
2023-04-15T04:23:16.448Z,99911.73
2023-04-15T04:24:18.903Z,99901.26
2023-04-15T04:25:21.947Z,99905.55
2023-04-15T04:26:25.369Z,99907.31
2023-04-15T04:27:27.927Z,99908.33
2023-04-15T04:28:30.183Z,99914.67
2023-04-15T04:29:32.531Z,99912.97
2023-04-15T04:30:35.815Z,99919.84
2023-04-15T04:31:39.317Z,99913.78
2023-04-15T04:32:41.679Z,99916.27
2023-04-15T04:33:43.994Z,99921.60
2023-04-15T04:34:46.634Z,99932.55
2023-04-15T04:35:48.863Z,99931.66
2023-04-15T04:36:52.063Z,99936.56
2023-04-15T04:37:54.424Z,99927.92
2023-04-15T04:38:56.790Z,99919.18
2023-04-15T04:39:59.563Z,99914.70
2023-04-15T04:41:02.082Z,99926.92
2023-04-15T04:42:04.514Z,99924.22
2023-04-15T04:43:06.655Z,99925.12
2023-04-15T04:44:09.688Z,99924.28
2023-04-15T04:45:14.610Z,99926.05
2023-04-15T04:46:17.080Z,99925.50
2023-04-15T04:47:19.330Z,99931.33
2023-04-15T04:48:22.378Z,99925.98
2023-04-15T04:49:25.089Z,99926.70
2023-04-15T04:50:28.703Z,99925.00
2023-04-15T04:51:31.977Z,99921.21
2023-04-15T04:52:34.394Z,99921.21
2023-04-15T04:53:37.736Z,99928.80
2023-04-15T04:54:40.456Z,99933.02
2023-04-15T04:55:42.690Z,99934.39
2023-04-15T04:56:45.027Z,99934.56
2023-04-15T04:57:47.817Z,99933.58
2023-04-15T04:58:50.751Z,99931.58
2023-04-15T04:59:53.040Z,99923.11
2023-04-15T05:00:56.218Z,99926.63
2023-04-15T05:01:59.442Z,99927.17
2023-04-15T05:03:02.513Z,99921.58
2023-04-15T05:04:07.051Z,99924.06
2023-04-15T05:05:11.670Z,99929.98
2023-04-15T05:06:14.698Z,99930.05
2023-04-15T05:07:17.310Z,99930.30
2023-04-15T05:08:20.497Z,99929.16
2023-04-15T05:09:23.219Z,99928.53
2023-04-15T05:10:25.685Z,99938.05
2023-04-15T05:11:27.908Z,99927.00
2023-04-15T05:12:30.249Z,99922.64
2023-04-15T05:13:32.594Z,99925.05
2023-04-15T05:14:34.855Z,99931.05
2023-04-15T05:15:39.157Z,99932.46
2023-04-15T05:16:41.699Z,99931.58
2023-04-15T05:17:44.676Z,99927.72
2023-04-15T05:18:47.158Z,99937.34
2023-04-15T05:19:49.373Z,99939.46
2023-04-15T05:20:52.131Z,99939.39
2023-04-15T05:21:54.466Z,99937.05
2023-04-15T05:22:56.720Z,99935.84
2023-04-15T05:23:59.277Z,99945.03
2023-04-15T05:25:02.748Z,99936.16
2023-04-15T05:26:06.125Z,99942.77
2023-04-15T05:27:11.139Z,99943.39
2023-04-15T05:28:13.774Z,99948.88
2023-04-15T05:29:16.212Z,99944.63
2023-04-15T05:30:18.883Z,99946.39
2023-04-15T05:31:21.247Z,99942.45
2023-04-15T05:32:31.369Z,99943.37
2023-04-15T05:33:34.534Z,99943.58
2023-04-15T05:34:37.481Z,99936.53
2023-04-15T05:35:40.479Z,99943.53
2023-04-15T05:36:44.071Z,99942.94
2023-04-15T05:37:46.569Z,99937.33
2023-04-15T05:38:48.704Z,99939.75
2023-04-15T05:39:51.470Z,99943.97
2023-04-15T05:40:53.902Z,99937.52
2023-04-15T05:41:57.034Z,99946.12
2023-04-15T05:42:59.929Z,99947.03
2023-04-15T05:44:02.717Z,99945.83
2023-04-15T05:45:08.086Z,99944.56
2023-04-15T05:46:11.644Z,99943.92
2023-04-15T05:47:14.275Z,99944.91
2023-04-15T05:48:16.490Z,99947.80
2023-04-15T05:49:18.668Z,99949.40
2023-04-15T05:50:20.994Z,99948.09
2023-04-15T05:51:23.579Z,99945.78
2023-04-15T05:52:25.919Z,99942.53
2023-04-15T05:53:28.115Z,99942.53
2023-04-15T05:54:30.879Z,99943.27
2023-04-15T05:55:32.922Z,99939.23
2023-04-15T05:56:35.344Z,99939.23
2023-04-15T05:57:37.893Z,99941.56
2023-04-15T05:58:40.542Z,99945.36
2023-04-15T05:59:43.795Z,99952.47
2023-04-15T06:00:46.876Z,99945.02
2023-04-15T06:01:51.487Z,99942.84
2023-04-15T06:02:54.366Z,99951.73
2023-04-15T06:03:57.163Z,99944.09
2023-04-15T06:05:00.513Z,99946.31
2023-04-15T06:06:03.111Z,99939.84
2023-04-15T06:07:05.646Z,99937.63
2023-04-15T06:08:07.952Z,99939.20
2023-04-15T06:09:10.671Z,99939.30
2023-04-15T06:10:13.284Z,99943.21
2023-04-15T06:11:15.846Z,99938.82
2023-04-15T06:12:18.294Z,99945.91
2023-04-15T06:13:20.416Z,99939.31
2023-04-15T06:14:22.736Z,99943.92
2023-04-15T06:15:25.091Z,99939.94
2023-04-15T06:16:27.784Z,99943.21
2023-04-15T06:17:30.286Z,99941.86
2023-04-15T06:18:32.750Z,99951.28
2023-04-15T06:19:36.073Z,99946.09
2023-04-15T06:20:39.039Z,99945.78
2023-04-15T06:21:41.544Z,99946.09
2023-04-15T06:22:44.230Z,99942.41
2023-04-15T06:23:47.647Z,99949.42
2023-04-15T06:24:53.168Z,99951.64
2023-04-15T06:25:55.468Z,99944.36
2023-04-15T06:26:58.096Z,99946.25
2023-04-15T06:28:00.787Z,99936.80
2023-04-15T06:29:03.240Z,99946.38
2023-04-15T06:30:07.890Z,99948.08
2023-04-15T06:31:10.925Z,99949.28
2023-04-15T06:32:13.414Z,99952.61
2023-04-15T06:33:16.593Z,99955.73
2023-04-15T06:34:18.859Z,99953.28
2023-04-15T06:35:21.600Z,99955.28
2023-04-15T06:36:24.188Z,99963.72
2023-04-15T06:37:26.526Z,99972.75
2023-04-15T06:38:28.744Z,99968.04
2023-04-15T06:39:30.761Z,99967.53
2023-04-15T06:40:33.518Z,99956.84
2023-04-15T06:41:36.410Z,99961.59
2023-04-15T06:42:38.646Z,99959.87
2023-04-15T06:43:41.280Z,99964.09
2023-04-15T06:44:43.515Z,99964.72
2023-04-15T06:45:46.710Z,99964.84
2023-04-15T06:46:49.365Z,99967.25
2023-04-15T06:47:51.702Z,99977.09
2023-04-15T06:48:53.907Z,99970.61
2023-04-15T06:49:56.029Z,99979.66
2023-04-15T06:50:58.483Z,99979.69
2023-04-15T06:52:01.087Z,99982.50
2023-04-15T06:53:04.241Z,99975.72
2023-04-15T06:54:07.895Z,99983.49
2023-04-15T06:55:10.869Z,99976.81
2023-04-15T06:56:13.982Z,99975.52
2023-04-15T06:57:16.232Z,99982.28
2023-04-15T06:58:18.885Z,99985.66
2023-04-15T06:59:21.513Z,99985.36
2023-04-15T07:00:24.825Z,99991.77
2023-04-15T07:01:27.311Z,99992.78
2023-04-15T07:02:30.023Z,99997.02
2023-04-15T07:03:33.063Z,99990.40
2023-04-15T07:04:37.692Z,99994.18
2023-04-15T07:05:40.818Z,99984.70
2023-04-15T07:06:44.014Z,99985.36
2023-04-15T07:07:46.904Z,99981.13
2023-04-15T07:08:49.229Z,99986.23
2023-04-15T07:09:53.681Z,99977.21
2023-04-15T07:10:56.633Z,99977.64
2023-04-15T07:11:59.413Z,99988.79
2023-04-15T07:13:02.162Z,99981.42
2023-04-15T07:14:04.908Z,99989.28
2023-04-15T07:15:07.884Z,99989.71
2023-04-15T07:16:11.359Z,99979.88
2023-04-15T07:17:14.325Z,99986.13
2023-04-15T07:18:16.877Z,99976.92
2023-04-15T07:19:19.576Z,99986.63
2023-04-15T07:20:22.183Z,99995.36
2023-04-15T07:21:25.327Z,99986.52
2023-04-15T07:22:27.600Z,99976.92
2023-04-15T07:23:30.135Z,99989.05
2023-04-15T07:24:32.393Z,99988.88
2023-04-15T07:25:35.376Z,99988.48
2023-04-15T07:26:38.112Z,99985.68
2023-04-15T07:27:40.296Z,99993.25
2023-04-15T07:28:42.605Z,99993.25
2023-04-15T07:29:44.718Z,99981.72
2023-04-15T07:30:47.004Z,99993.61
2023-04-15T07:31:49.420Z,99995.66
2023-04-15T07:32:52.074Z,100005.31
2023-04-15T07:33:54.849Z,100004.50
2023-04-15T07:34:57.872Z,100004.86
2023-04-15T07:36:01.456Z,100006.88
2023-04-15T07:37:04.132Z,100003.20
2023-04-15T07:38:06.930Z,100001.51
2023-04-15T07:39:09.522Z,99993.53
2023-04-15T07:40:13.948Z,99998.52
2023-04-15T07:41:17.906Z,99997.63
2023-04-15T07:42:20.374Z,99999.33
2023-04-15T07:43:22.422Z,100002.93
2023-04-15T07:44:26.381Z,99993.03
2023-04-15T07:45:29.179Z,99995.63
2023-04-15T07:46:32.199Z,100002.31
2023-04-15T07:47:34.650Z,100008.11
2023-04-15T07:48:37.550Z,99998.93
2023-04-15T07:49:42.857Z,99992.83
2023-04-15T07:50:46.887Z,99997.95
2023-04-15T07:51:50.978Z,99998.30
2023-04-15T07:52:53.277Z,99990.61
2023-04-15T07:53:55.782Z,100005.81
2023-04-15T07:54:58.053Z,99995.02
2023-04-15T07:56:00.737Z,100007.44
2023-04-15T07:57:07.478Z,100013.30
2023-04-15T07:58:11.645Z,100008.72
2023-04-15T07:59:15.955Z,100016.30
2023-04-15T08:00:18.987Z,100009.22
2023-04-15T08:01:22.117Z,100010.25
2023-04-15T08:02:25.070Z,100010.45
2023-04-15T08:03:27.591Z,100014.03
2023-04-15T08:04:31.826Z,100012.88
2023-04-15T08:05:34.474Z,100028.17
2023-04-15T08:06:38.693Z,100020.34
2023-04-15T08:07:43.560Z,100018.08
2023-04-15T08:08:46.472Z,100015.35
2023-04-15T08:09:48.683Z,100021.03
2023-04-15T08:10:52.620Z,100016.55
2023-04-15T08:11:57.098Z,100012.25
2023-04-15T08:13:00.891Z,100010.09
2023-04-15T08:14:03.198Z,99996.58
2023-04-15T08:15:07.575Z,99996.58
2023-04-15T08:16:26.423Z,100012.42
2023-04-15T08:17:28.879Z,100006.30
2023-04-15T08:18:31.924Z,100018.25
2023-04-15T08:19:36.200Z,100013.00
2023-04-15T08:20:39.794Z,100021.55
2023-04-15T08:21:41.791Z,100009.78
2023-04-15T08:22:44.262Z,100009.91
2023-04-15T08:23:50.077Z,100014.58
2023-04-15T08:24:52.872Z,100017.05
2023-04-15T08:25:55.520Z,100005.09
2023-04-15T08:26:58.324Z,100004.91
2023-04-15T08:28:03.933Z,100009.05
2023-04-15T08:29:06.686Z,100012.50
2023-04-15T08:30:12.228Z,100008.77
2023-04-15T08:31:17.017Z,100013.39
2023-04-15T08:32:19.747Z,100004.34
2023-04-15T08:33:22.121Z,99997.38
2023-04-15T08:34:24.782Z,99999.68
2023-04-15T08:35:27.431Z,99994.82
2023-04-15T08:36:30.348Z,99995.31
2023-04-15T08:37:32.533Z,99992.85
2023-04-15T08:38:34.710Z,99993.17
2023-04-15T08:39:37.262Z,99998.30
2023-04-15T08:40:45.054Z,100004.98
2023-04-15T08:41:53.662Z,99997.94
2023-04-15T08:42:59.356Z,99995.93
2023-04-15T08:44:05.308Z,100001.00
2023-04-15T08:45:12.769Z,100000.37
2023-04-15T08:46:16.984Z,100009.61
2023-04-15T08:47:22.031Z,99989.91
2023-04-15T08:48:27.516Z,100001.73
2023-04-15T08:49:30.832Z,99992.16
2023-04-15T08:50:33.232Z,99997.29
2023-04-15T08:51:36.169Z,99995.65
2023-04-15T08:52:39.583Z,99991.06
2023-04-15T08:53:44.644Z,99991.06
2023-04-15T08:54:48.790Z,99999.64
2023-04-15T08:55:54.686Z,100001.23
2023-04-15T08:56:59.111Z,100007.64
2023-04-15T08:58:03.550Z,100007.27
2023-04-15T08:59:07.333Z,99994.55
2023-04-15T09:00:12.889Z,99998.62
2023-04-15T09:01:16.950Z,100006.25
2023-04-15T09:02:19.192Z,100002.16
2023-04-15T09:03:23.229Z,100004.32
2023-04-15T09:04:26.804Z,100006.94
2023-04-15T09:05:32.046Z,100003.45
2023-04-15T09:06:35.659Z,100007.45
2023-04-15T09:07:38.065Z,100011.44
2023-04-15T09:08:41.161Z,100006.45
2023-04-15T09:09:43.356Z,100009.94
2023-04-15T09:10:46.574Z,100008.84
2023-04-15T09:11:51.443Z,100004.34
2023-04-15T09:12:56.903Z,100019.47
2023-04-15T09:13:59.212Z,100013.37
2023-04-15T09:15:02.230Z,100001.98
2023-04-15T09:16:06.850Z,100001.87
2023-04-15T09:17:12.274Z,100000.87
2023-04-15T09:19:28.894Z,99998.91
2023-04-15T09:20:41.853Z,100014.88
2023-04-15T09:21:47.733Z,100003.32
2023-04-15T09:22:51.503Z,100006.55
2023-04-15T09:23:57.647Z,100003.47
2023-04-15T09:25:01.980Z,99996.47
2023-04-15T09:26:06.268Z,100011.74
2023-04-15T09:27:08.663Z,100003.84
2023-04-15T09:28:11.844Z,100003.78
2023-04-15T09:29:14.687Z,100010.55
2023-04-15T09:30:17.708Z,100015.27
2023-04-15T09:31:23.739Z,100010.67
2023-04-15T09:32:29.190Z,100016.30
2023-04-15T09:33:31.637Z,100018.83
2023-04-15T09:34:37.400Z,100003.27
2023-04-15T09:35:41.072Z,100016.55
2023-04-15T09:36:51.153Z,100027.98
2023-04-15T09:37:56.823Z,100015.77
2023-04-15T09:39:00.540Z,100018.17
2023-04-15T09:40:03.551Z,100018.00
2023-04-15T09:41:09.322Z,100010.75
2023-04-15T09:42:11.828Z,100012.12
2023-04-15T09:43:16.859Z,100012.12
2023-04-15T09:44:27.539Z,100015.33
2023-04-15T09:45:32.569Z,100015.98
2023-04-15T09:46:43.718Z,100018.72
2023-04-15T09:47:49.353Z,100014.37
2023-04-15T09:49:11.068Z,100014.78
2023-04-15T09:50:14.932Z,100012.01
2023-04-15T09:51:19.156Z,100022.88
2023-04-15T09:52:22.314Z,100014.52
2023-04-15T09:53:25.487Z,100016.33
2023-04-15T09:54:36.373Z,100014.41
2023-04-15T09:55:39.548Z,100005.56
2023-04-15T09:56:42.652Z,100017.64
2023-04-15T09:57:47.163Z,100017.08
2023-04-15T09:58:53.712Z,100005.06
2023-04-15T09:59:56.080Z,100015.23
2023-04-15T10:01:01.617Z,100015.44
2023-04-15T10:02:08.426Z,100012.94
2023-04-15T10:03:12.119Z,100011.03
2023-04-15T10:04:15.618Z,100018.38
2023-04-15T10:05:18.416Z,100012.62
2023-04-15T10:06:24.149Z,100012.82
2023-04-15T10:07:28.182Z,100019.45
2023-04-15T10:08:34.167Z,100002.33
2023-04-15T10:09:38.387Z,100015.82
2023-04-15T10:10:41.712Z,100010.25
2023-04-15T10:11:45.725Z,100013.83
2023-04-15T10:12:49.422Z,100011.03
2023-04-15T10:13:52.906Z,100004.70
2023-04-15T10:15:07.685Z,100012.91
2023-04-15T10:16:12.613Z,100015.35
2023-04-15T10:17:18.467Z,100013.28
2023-04-15T10:18:23.959Z,100029.95
2023-04-15T10:19:29.226Z,100027.09
2023-04-15T10:20:34.558Z,100026.91
2023-04-15T10:21:41.299Z,100033.43
2023-04-15T10:22:46.393Z,100020.27
2023-04-15T10:23:50.648Z,100026.85
2023-04-15T10:24:54.782Z,100030.44
2023-04-15T10:25:59.287Z,100030.44
2023-04-15T10:27:04.813Z,100037.16
2023-04-15T10:28:10.897Z,100027.05
2023-04-15T10:29:14.104Z,100026.42
2023-04-15T10:30:18.224Z,100032.22
2023-04-15T10:31:21.451Z,100037.89
2023-04-15T10:32:25.058Z,100034.49
2023-04-15T10:33:31.754Z,100041.27
2023-04-15T10:34:35.359Z,100039.59
2023-04-15T10:35:39.215Z,100040.86
2023-04-15T10:36:41.638Z,100050.78
2023-04-15T10:37:43.792Z,100056.16
2023-04-15T10:38:46.396Z,100051.61
2023-04-15T10:39:50.715Z,100050.59
2023-04-15T10:40:53.561Z,100037.35
2023-04-15T10:42:10.823Z,100050.41
2023-04-15T10:43:16.689Z,100040.63
2023-04-15T10:44:18.996Z,100047.27
2023-04-15T10:45:21.609Z,100045.48
2023-04-15T10:46:27.288Z,100043.61
2023-04-15T10:47:32.113Z,100053.81
2023-04-15T10:48:35.033Z,100049.09
2023-04-15T10:49:47.632Z,100048.16
2023-04-15T10:50:57.328Z,100046.56
2023-04-15T10:52:02.659Z,100036.00
2023-04-15T10:53:05.695Z,100040.81
2023-04-15T10:54:27.792Z,100042.34
2023-04-15T10:55:34.762Z,100041.11
2023-04-15T10:56:37.200Z,100032.14
2023-04-15T10:57:41.344Z,100034.25
2023-04-15T10:58:44.901Z,100028.91
2023-04-15T11:00:03.775Z,100024.63
2023-04-15T11:01:07.603Z,100036.68
2023-04-15T11:02:13.945Z,100045.35
2023-04-15T11:03:16.307Z,100038.91
2023-04-15T11:04:57.193Z,100037.05
2023-04-15T11:06:00.303Z,100042.59
2023-04-15T11:07:07.993Z,100039.27
2023-04-15T11:08:11.667Z,100045.16
2023-04-15T11:09:32.585Z,100046.17
2023-04-15T11:10:39.773Z,100039.38
2023-04-15T11:12:10.021Z,100040.23
2023-04-15T11:13:19.209Z,100043.45
2023-04-15T11:14:25.384Z,100052.19
2023-04-15T11:15:46.499Z,100050.63
2023-04-15T11:16:50.590Z,100048.84
2023-04-15T11:17:53.247Z,100047.88
2023-04-15T11:18:56.284Z,100043.72
2023-04-15T11:19:59.893Z,100046.38
2023-04-15T11:21:05.193Z,100043.39
2023-04-15T11:22:13.626Z,100046.92
2023-04-15T11:23:23.883Z,100049.08
2023-04-15T11:24:27.868Z,100047.02
2023-04-15T11:25:32.883Z,100040.75
2023-04-15T11:26:36.488Z,100043.53
2023-04-15T11:27:38.880Z,100047.20
2023-04-15T11:28:44.196Z,100047.22
2023-04-15T11:29:46.489Z,100042.55
2023-04-15T11:30:49.282Z,100040.42
2023-04-15T11:31:52.233Z,100043.27
2023-04-15T11:32:57.542Z,100045.91
2023-04-15T11:34:52.900Z,100036.94
2023-04-15T11:36:01.347Z,100037.81
2023-04-15T11:37:08.391Z,100035.29
2023-04-15T11:38:17.817Z,100041.03
2023-04-15T11:39:22.372Z,100047.73
2023-04-15T11:40:29.997Z,100041.49
2023-04-15T11:41:32.391Z,100034.88
2023-04-15T11:42:48.583Z,100048.20
2023-04-15T11:43:39.130Z,100038.11
2023-04-15T11:44:41.480Z,100047.06
2023-04-15T11:45:56.367Z,100043.19
2023-04-15T11:46:59.569Z,100043.79
2023-04-15T11:48:10.794Z,100054.44
2023-04-15T11:49:32.646Z,100037.45
2023-04-15T11:50:36.756Z,100047.05
2023-04-15T11:51:39.292Z,100052.28
2023-04-15T11:52:43.951Z,100037.45
2023-04-15T11:53:49.751Z,100040.92
2023-04-15T11:54:52.145Z,100049.52
2023-04-15T11:55:54.713Z,100047.10
2023-04-15T11:56:57.450Z,100039.92
2023-04-15T11:58:15.102Z,100051.98
2023-04-15T11:59:17.433Z,100055.22
2023-04-15T12:00:20.541Z,100044.86
2023-04-15T12:01:35.749Z,100049.16
2023-04-15T12:02:41.284Z,100049.98
2023-04-15T12:03:47.205Z,100045.70
2023-04-15T12:04:50.190Z,100036.38
2023-04-15T12:06:11.949Z,100039.69
2023-04-15T12:07:14.270Z,100055.75
2023-04-15T12:08:16.934Z,100031.61
2023-04-15T12:09:19.796Z,100040.14
2023-04-15T12:10:25.400Z,100039.26
2023-04-15T12:11:31.850Z,100041.69
2023-04-15T12:12:34.924Z,100032.20
2023-04-15T12:13:37.389Z,100032.85
2023-04-15T12:14:40.340Z,100024.88
2023-04-15T12:15:43.589Z,100029.88
2023-04-15T12:16:51.664Z,100031.47
2023-04-15T12:17:56.106Z,100032.07
2023-04-15T12:19:01.243Z,100023.44
2023-04-15T12:20:04.706Z,100033.31
2023-04-15T12:21:12.768Z,100031.03
2023-04-15T12:22:18.163Z,100037.63
2023-04-15T12:23:20.805Z,100028.21
2023-04-15T12:24:24.216Z,100019.45
2023-04-15T12:25:34.859Z,100021.91